Latest Weather Observations for Warburto Point

IDS60801

Issued at 5:02 am CDT Thursday 5 March 2015 (issued every 30 minutes, with the page automatically refreshed every 10 minutes)

About weather observations | Map of weather stations | Latest weather observations for SA | Other Formats
Station Details ID: 022053 Name: WARBURTO POINT Lat: -34.00 Lon: 137.53 Height: 1.0 m
Data from the previous 72 hours. | See also: Recent months for locations in South Australia
Date/Time
CDT
Temp
°C
App
Temp
°C
Dew
Point
Rel
Hum
%
Delta-T
°C
Wind Press
QNH
hPa
Press
MSL
hPa
Rain
since 9 am
mm
Dir
 
Spd
km/h
Gust
km/h
Spd
kts
Gust
kts
05/05:00am - - - - - SSE 32 39 17 21 - - -
05/04:30am - - - - - SSE 30 37 16 20 - - -
05/04:00am - - - - - S 39 48 21 26 - - -
05/03:30am - - - - - SSW 37 46 20 25 - - -
05/03:00am - - - - - SSW 44 57 24 31 - - -
05/02:41am - - - - - SSW 37 57 20 31 - - -
05/02:30am - - - - - SSW 33 41 18 22 - - -
05/02:00am - - - - - SSW 37 52 20 28 - - -
05/01:30am - - - - - SW 35 46 19 25 - - -
05/01:00am - - - - - SW 32 41 17 22 - - -
05/12:30am - - - - - SSW 33 50 18 27 - - -
05/12:00am - - - - - SW 32 41 17 22 - - -
 
Date/Time
CDT
Temp
°C
App
Temp
°C
Dew
Point
Rel
Hum
%
Delta-T
°C
Wind Press
QNH
hPa
Press
MSL
hPa
Rain
since 9 am
mm
Dir
 
Spd
km/h
Gust
km/h
Spd
kts
Gust
kts
04/11:30pm - - - - - SW 32 41 17 22 - - -
04/11:00pm - - - - - SW 33 44 18 24 - - -
04/10:30pm - - - - - SW 35 46 19 25 - - -
04/10:00pm - - - - - SSW 39 52 21 28 - - -
04/09:30pm - - - - - SSW 43 54 23 29 - - -
04/09:00pm - - - - - SSW 35 44 19 24 - - -
04/08:30pm - - - - - SSW 35 46 19 25 - - -
04/08:00pm - - - - - SSW 33 44 18 24 - - -
04/07:30pm - - - - - SSW 35 44 19 24 - - -
04/07:00pm - - - - - SSW 32 39 17 21 - - -
04/06:30pm - - - - - SSW 32 41 17 22 - - -
04/06:00pm - - - - - SSW 28 35 15 19 - - -
04/05:30pm - - - - - SSW 32 37 17 20 - - -
04/05:00pm - - - - - SSW 28 35 15 19 - - -
04/04:30pm - - - - - SSW 24 32 13 17 - - -
04/04:00pm - - - - - SSW 28 33 15 18 - - -
04/03:30pm - - - - - SSW 30 41 16 22 - - -
04/03:00pm - - - - - SSW 28 35 15 19 - - -
04/02:30pm - - - - - SW 30 37 16 20 - - -
04/02:00pm - - - - - SW 26 33 14 18 - - -
04/01:30pm - - - - - SSW 24 30 13 16 - - -
04/01:00pm - - - - - SSW 20 30 11 16 - - -
04/12:30pm - - - - - SSW 17 22 9 12 - - -
04/12:00pm - - - - - SW 17 26 9 14 - - -
04/11:30am - - - - - SSW 19 28 10 15 - - -
04/11:00am - - - - - S 15 22 8 12 - - -
04/10:30am - - - - - S 19 28 10 15 - - -
04/10:00am - - - - - SSE 17 20 9 11 - - -
04/09:30am - - - - - S 15 24 8 13 - - -
04/09:00am - - - - - SSE 19 26 10 14 - - -
04/08:30am - - - - - SSE 20 28 11 15 - - -
04/08:00am - - - - - SSE 22 26 12 14 - - -
04/07:30am - - - - - SSE 20 28 11 15 - - -
04/07:00am - - - - - SSE 26 30 14 16 - - -
04/06:30am - - - - - SSE 28 32 15 17 - - -
04/06:00am - - - - - SSE 22 28 12 15 - - -
04/05:30am - - - - - SSE 28 33 15 18 - - -
04/05:00am - - - - - SSE 28 33 15 18 - - -
04/04:30am - - - - - S 28 35 15 19 - - -
04/04:00am - - - - - S 26 33 14 18 - - -
04/03:30am - - - - - S 24 30 13 16 - - -
04/03:00am - - - - - SSE 24 32 13 17 - - -
04/02:30am - - - - - SSE 24 30 13 16 - - -
04/02:00am - - - - - SSE 24 32 13 17 - - -
04/01:30am - - - - - SSE 24 30 13 16 - - -
04/01:00am - - - - - SSE 28 33 15 18 - - -
04/12:30am - - - - - SSE 26 33 14 18 - - -
04/12:00am - - - - - SSE 26 33 14 18 - - -
 
Date/Time
CDT
Temp
°C
App
Temp
°C
Dew
Point
Rel
Hum
%
Delta-T
°C
Wind Press
QNH
hPa
Press
MSL
hPa
Rain
since 9 am
mm
Dir
 
Spd
km/h
Gust
km/h
Spd
kts
Gust
kts
03/11:30pm - - - - - SSE 28 33 15 18 - - -
03/11:00pm - - - - - SSE 30 35 16 19 - - -
03/10:30pm - - - - - SSE 26 32 14 17 - - -
03/10:00pm - - - - - SSE 24 33 13 18 - - -
03/09:30pm - - - - - SSE 28 33 15 18 - - -
03/09:00pm - - - - - SSE 30 37 16 20 - - -
03/08:30pm - - - - - S 30 35 16 19 - - -
03/08:00pm - - - - - S 30 37 16 20 - - -
03/07:30pm - - - - - SSW 33 41 18 22 - - -
03/07:00pm - - - - - SSW 37 44 20 24 - - -
03/06:30pm - - - - - SSW 35 44 19 24 - - -
03/06:00pm - - - - - SSW 35 44 19 24 - - -
03/05:30pm - - - - - SSW 37 48 20 26 - - -
03/05:00pm - - - - - SSW 37 48 20 26 - - -
03/04:30pm - - - - - SSW 35 46 19 25 - - -
03/04:00pm - - - - - SSW 35 44 19 24 - - -
03/03:30pm - - - - - SSW 35 44 19 24 - - -
03/03:00pm - - - - - SSW 35 46 19 25 - - -
03/02:30pm - - - - - SSW 33 44 18 24 - - -
03/02:00pm - - - - - SW 32 39 17 21 - - -
03/01:30pm - - - - - SW 32 39 17 21 - - -
03/01:00pm - - - - - SW 32 39 17 21 - - -
03/12:30pm - - - - - SW 30 35 16 19 - - -
03/12:00pm - - - - - SSW 20 30 11 16 - - -
03/11:30am - - - - - SSW 22 28 12 15 - - -
03/11:00am - - - - - SSW 20 28 11 15 - - -
03/10:30am - - - - - S 19 24 10 13 - - -
03/10:00am - - - - - SSW 17 24 9 13 - - -
03/09:30am - - - - - SSE 17 20 9 11 - - -
03/09:00am - - - - - S 19 26 10 14 - - -
03/08:30am - - - - - S 15 19 8 10 - - -
03/08:00am - - - - - SSE 15 20 8 11 - - -
03/07:30am - - - - - SSE 17 26 9 14 - - -
03/07:00am - - - - - SE 15 20 8 11 - - -
03/06:30am - - - - - SE 17 22 9 12 - - -
03/06:00am - - - - - SSE 19 24 10 13 - - -
03/05:30am - - - - - SE 19 26 10 14 - - -
03/05:00am - - - - - SSE 19 24 10 13 - - -
03/04:30am - - - - - SE 15 24 8 13 - - -
03/04:00am - - - - - SE 11 15 6 8 - - -
03/03:30am - - - - - SSE 20 26 11 14 - - -
03/03:00am - - - - - SSE 22 28 12 15 - - -
03/02:30am - - - - - S 26 32 14 17 - - -
03/02:00am - - - - - S 24 30 13 16 - - -
03/01:30am - - - - - S 19 26 10 14 - - -
03/01:00am - - - - - S 20 28 11 15 - - -
03/12:30am - - - - - SSE 17 20 9 11 - - -
03/12:00am - - - - - SSE 15 19 8 10 - - -
 
Date/Time
CDT
Temp
°C
App
Temp
°C
Dew
Point
Rel
Hum
%
Delta-T
°C
Wind Press
QNH
hPa
Press
MSL
hPa
Rain
since 9 am
mm
Dir
 
Spd
km/h
Gust
km/h
Spd
kts
Gust
kts
02/11:30pm - - - - - SSE 19 22 10 12 - - -
02/11:00pm - - - - - SSE 24 30 13 16 - - -
02/10:30pm - - - - - S 32 41 17 22 - - -
02/10:00pm - - - - - S 35 43 19 23 - - -
02/09:30pm - - - - - SSW 35 46 19 25 - - -
02/09:00pm - - - - - SSW 37 46 20 25 - - -
02/08:30pm - - - - - SSW 39 48 21 26 - - -
02/08:00pm - - - - - SSW 35 46 19 25 - - -
02/07:30pm - - - - - SSW 35 43 19 23 - - -
02/07:00pm - - - - - SSW 35 44 19 24 - - -
02/06:30pm - - - - - SSW 35 44 19 24 - - -
02/06:00pm - - - - - SSW 33 41 18 22 - - -
02/05:30pm - - - - - SW 32 37 17 20 - - -
02/05:00pm - - - - - SSW 32 41 17 22 - - -
02/04:30pm - - - - - SSW 24 30 13 16 - - -
02/04:00pm - - - - - SSW 24 30 13 16 - - -
02/03:30pm - - - - - SW 28 33 15 18 - - -
02/03:00pm - - - - - SW 22 28 12 15 - - -
02/02:30pm - - - - - WSW 26 32 14 17 - - -
02/02:00pm - - - - - W 17 22 9 12 - - -
02/01:30pm - - - - - W 15 19 8 10 - - -
02/01:00pm - - - - - W 15 19 8 10 - - -
02/12:30pm - - - - - WNW 15 19 8 10 - - -
02/12:00pm - - - - - NW 15 17 8 9 - - -
02/11:30am - - - - - NNE 13 17 7 9 - - -
02/11:00am - - - - - N 13 15 7 8 - - -
02/10:30am - - - - - NNE 13 17 7 9 - - -
02/10:00am - - - - - NE 15 19 8 10 - - -
02/09:30am - - - - - ENE 15 17 8 9 - - -
02/09:00am - - - - - ENE 17 20 9 11 - - -
02/08:30am - - - - - E 17 24 9 13 - - -
02/08:00am - - - - - E 17 19 9 10 - - -
02/07:30am - - - - - ENE 17 17 9 9 - - -
02/07:00am - - - - - ENE 13 15 7 8 - - -
02/06:30am - - - - - ENE 13 19 7 10 - - -
02/06:00am - - - - - E 20 28 11 15 - - -
02/05:30am - - - - - E 19 26 10 14 - - -

Other Formats:

Comma delimited format used in spreadsheet applications
http://www.bom.gov.au/fwo/IDS60801/IDS60801.94666.axf

JavaScript Object Notation format (JSON) in row-major order
http://www.bom.gov.au/fwo/IDS60801/IDS60801.94666.json